createdAt,value
2022-10-07T00:00:10.209Z,2.35
2022-10-07T00:02:36.815Z,2.10
2022-10-07T00:05:03.439Z,1.98
2022-10-07T00:07:29.992Z,1.98
2022-10-07T00:09:56.530Z,2.20
2022-10-07T00:12:23.255Z,2.10
2022-10-07T00:14:49.739Z,2.13
2022-10-07T00:17:16.328Z,2.13
2022-10-07T00:19:43.246Z,2.33
2022-10-07T00:22:09.746Z,1.95
2022-10-07T00:24:36.272Z,1.90
2022-10-07T00:27:02.853Z,2.10
2022-10-07T00:29:29.344Z,1.92
2022-10-07T00:31:57.304Z,2.10
2022-10-07T00:34:24.528Z,2.60
2022-10-07T00:36:51.110Z,2.10
2022-10-07T00:39:17.820Z,2.30
2022-10-07T00:41:51.375Z,2.25
2022-10-07T00:44:36.098Z,2.10
2022-10-07T00:47:11.848Z,2.40
2022-10-07T00:50:04.641Z,2.03
2022-10-07T00:52:32.839Z,2.00
2022-10-07T00:55:00.864Z,2.55
2022-10-07T00:57:29.525Z,1.98
2022-10-07T00:59:57.043Z,1.70
2022-10-07T01:02:24.465Z,2.17
2022-10-07T01:04:51.461Z,2.20
2022-10-07T01:07:20.217Z,1.85
2022-10-07T01:09:50.629Z,2.42
2022-10-07T01:12:19.598Z,2.63
2022-10-07T01:14:51.970Z,2.35
2022-10-07T01:17:57.094Z,2.05
2022-10-07T01:22:55.963Z,2.53
2022-10-07T01:25:29.329Z,2.40
2022-10-07T01:27:59.530Z,2.47
2022-10-07T01:30:25.968Z,2.67
2022-10-07T01:32:53.946Z,1.98
2022-10-07T01:35:24.687Z,2.75
2022-10-07T01:37:53.987Z,2.63
2022-10-07T01:40:23.996Z,2.20
2022-10-07T01:42:51.972Z,2.30
2022-10-07T01:45:21.416Z,2.40
2022-10-07T01:47:48.480Z,2.40
2022-10-07T01:50:15.389Z,2.28
2022-10-07T01:52:58.415Z,2.40
2022-10-07T01:55:43.776Z,2.40
2022-10-07T01:58:33.577Z,2.90
2022-10-07T02:01:08.911Z,6.13
2022-10-07T02:03:54.347Z,2.72
2022-10-07T02:06:26.668Z,2.17
2022-10-07T02:08:55.550Z,2.03
2022-10-07T02:11:23.913Z,2.70
2022-10-07T02:13:55.981Z,2.30
2022-10-07T02:16:32.542Z,2.58
2022-10-07T02:19:01.284Z,2.22
2022-10-07T02:21:29.599Z,2.80
2022-10-07T02:23:57.925Z,2.60
2022-10-07T02:26:27.926Z,2.00
2022-10-07T02:28:56.344Z,2.10
2022-10-07T02:31:25.603Z,2.17
2022-10-07T02:33:54.100Z,2.40
2022-10-07T02:36:25.003Z,2.17
2022-10-07T02:38:52.473Z,3.33
2022-10-07T02:41:34.133Z,2.05
2022-10-07T02:44:06.135Z,2.25
2022-10-07T02:46:35.784Z,2.25
2022-10-07T02:49:05.058Z,1.70
2022-10-07T02:51:46.924Z,2.00
2022-10-07T02:54:16.769Z,2.00
2022-10-07T02:56:44.185Z,1.88
2022-10-07T02:59:12.644Z,1.95
2022-10-07T03:01:41.647Z,2.42
2022-10-07T03:04:08.519Z,1.80
2022-10-07T03:06:35.786Z,1.80
2022-10-07T03:09:02.924Z,2.08
2022-10-07T03:11:30.273Z,1.92
2022-10-07T03:13:57.151Z,2.25
2022-10-07T03:16:23.770Z,1.80
2022-10-07T03:18:51.746Z,2.67
2022-10-07T03:21:25.135Z,2.38
2022-10-07T03:23:54.849Z,2.33
2022-10-07T03:26:24.900Z,1.85
2022-10-07T03:28:51.969Z,2.00
2022-10-07T03:31:19.390Z,1.92
2022-10-07T03:33:48.993Z,1.80
2022-10-07T03:36:16.631Z,1.95
2022-10-07T03:38:45.319Z,2.03
2022-10-07T03:41:13.592Z,1.85
2022-10-07T03:43:40.118Z,2.00
2022-10-07T03:46:08.438Z,1.63
2022-10-07T03:48:36.992Z,2.70
2022-10-07T03:51:03.674Z,1.95
2022-10-07T03:53:32.802Z,2.15
2022-10-07T03:56:01.568Z,2.13
2022-10-07T03:58:29.891Z,2.20
2022-10-07T04:03:36.996Z,2.30
2022-10-07T04:06:04.041Z,2.13
2022-10-07T04:08:33.404Z,1.80
2022-10-07T04:11:02.046Z,2.22
2022-10-07T04:13:29.440Z,1.70
2022-10-07T04:15:56.848Z,2.20
2022-10-07T04:18:23.510Z,1.98
2022-10-07T04:20:52.177Z,2.25
2022-10-07T04:23:18.674Z,2.72
2022-10-07T04:25:46.652Z,2.15
2022-10-07T04:28:22.085Z,2.65
2022-10-07T04:30:53.794Z,2.63
2022-10-07T04:33:25.866Z,2.60
2022-10-07T04:35:54.875Z,2.30
2022-10-07T04:38:26.346Z,2.45
2022-10-07T04:40:55.179Z,2.67
2022-10-07T04:43:23.452Z,2.58
2022-10-07T04:46:04.823Z,2.40
2022-10-07T04:48:33.361Z,2.97
2022-10-07T04:51:04.521Z,3.15
2022-10-07T04:53:31.815Z,2.90
2022-10-07T04:55:58.324Z,3.70
2022-10-07T04:58:24.758Z,3.38
2022-10-07T05:00:52.426Z,3.47
2022-10-07T05:03:21.987Z,2.60
2022-10-07T05:05:50.659Z,3.30
2022-10-07T05:08:18.688Z,3.03
2022-10-07T05:10:45.748Z,3.60
2022-10-07T05:13:14.400Z,4.00
2022-10-07T05:15:52.360Z,3.05
2022-10-07T05:18:19.793Z,3.63
2022-10-07T05:20:48.472Z,2.97
2022-10-07T05:23:16.740Z,2.90
2022-10-07T05:25:44.813Z,2.88
2022-10-07T05:28:12.037Z,2.75
2022-10-07T05:30:39.377Z,2.50
2022-10-07T05:33:06.692Z,2.25
2022-10-07T05:35:34.001Z,3.30
2022-10-07T05:38:01.096Z,3.20
2022-10-07T05:40:28.063Z,2.50
2022-10-07T05:42:55.112Z,2.50
2022-10-07T05:45:22.486Z,2.88
2022-10-07T05:47:49.110Z,4.18
2022-10-07T05:50:16.387Z,2.97
2022-10-07T05:52:45.201Z,2.80
2022-10-07T05:55:12.870Z,2.42
2022-10-07T05:57:41.272Z,2.40
2022-10-07T06:00:08.214Z,2.95
2022-10-07T06:02:40.184Z,3.65
2022-10-07T06:05:07.830Z,2.40
2022-10-07T06:07:35.088Z,2.30
2022-10-07T06:10:21.849Z,2.47
2022-10-07T06:13:07.384Z,4.95
2022-10-07T06:15:35.031Z,3.13
2022-10-07T06:18:03.186Z,2.65
2022-10-07T06:20:29.635Z,3.33
2022-10-07T06:22:58.915Z,3.00
2022-10-07T06:25:26.696Z,3.90
2022-10-07T06:27:55.139Z,2.88
2022-10-07T06:30:23.358Z,3.03
2022-10-07T06:32:49.819Z,4.22
2022-10-07T06:35:16.757Z,2.97
2022-10-07T06:37:43.540Z,4.15
2022-10-07T06:40:11.886Z,2.70
2022-10-07T06:42:38.833Z,3.45
2022-10-07T06:45:32.899Z,4.03
2022-10-07T06:48:00.310Z,4.50
2022-10-07T06:50:27.618Z,4.35
2022-10-07T06:52:54.186Z,4.20
2022-10-07T06:55:21.204Z,4.38
2022-10-07T06:57:47.623Z,3.97
2022-10-07T07:00:17.969Z,4.22
2022-10-07T07:02:46.534Z,3.10
2022-10-07T07:05:14.326Z,3.63
2022-10-07T07:07:41.815Z,3.10
2022-10-07T07:10:08.455Z,3.00
2022-10-07T07:12:37.916Z,3.17
2022-10-07T07:15:05.030Z,4.00
2022-10-07T07:17:32.695Z,4.30
2022-10-07T07:19:59.200Z,3.80
2022-10-07T07:22:25.869Z,4.18
2022-10-07T07:24:52.362Z,3.75
2022-10-07T07:27:19.637Z,4.43
2022-10-07T07:29:46.059Z,3.80
2022-10-07T07:32:13.048Z,3.95
2022-10-07T07:34:42.258Z,3.58
2022-10-07T07:37:13.151Z,4.93
2022-10-07T07:39:44.843Z,4.60
2022-10-07T07:42:14.567Z,5.28
2022-10-07T07:44:41.060Z,4.30
2022-10-07T07:47:10.691Z,4.20
2022-10-07T07:49:38.350Z,4.30
2022-10-07T07:52:07.519Z,4.28
2022-10-07T07:54:41.514Z,4.45
2022-10-07T07:57:08.541Z,3.78
2022-10-07T07:59:37.211Z,6.43
2022-10-07T08:02:04.858Z,5.18
2022-10-07T08:04:31.818Z,6.95
2022-10-07T08:06:58.771Z,4.63
2022-10-07T08:09:25.655Z,4.50
2022-10-07T08:11:53.358Z,4.22
2022-10-07T08:14:19.951Z,4.30
2022-10-07T08:16:49.918Z,4.57
2022-10-07T08:19:16.522Z,4.15
2022-10-07T08:21:43.363Z,4.60
2022-10-07T08:24:15.002Z,4.63
2022-10-07T08:26:41.792Z,4.93
2022-10-07T08:29:13.159Z,3.95
2022-10-07T08:31:42.299Z,3.90
2022-10-07T08:34:10.894Z,4.38
2022-10-07T08:36:37.514Z,3.97
2022-10-07T08:39:04.618Z,3.97
2022-10-07T08:41:34.011Z,3.92
2022-10-07T08:44:08.140Z,3.88
2022-10-07T08:46:37.416Z,3.97
2022-10-07T08:49:13.376Z,3.75
2022-10-07T08:51:52.345Z,3.78
2022-10-07T08:54:24.811Z,3.42
2022-10-07T08:56:51.313Z,4.00
2022-10-07T08:59:23.946Z,3.60
2022-10-07T09:01:56.241Z,3.30
2022-10-07T09:04:39.337Z,3.10
2022-10-07T09:07:09.716Z,4.57
2022-10-07T09:09:42.198Z,3.55
2022-10-07T09:12:11.563Z,3.42
2022-10-07T09:14:39.573Z,3.60
2022-10-07T09:17:13.152Z,2.88
2022-10-07T09:19:45.206Z,3.05
2022-10-07T09:22:16.189Z,2.80
2022-10-07T09:27:13.455Z,3.00
2022-10-07T09:29:40.945Z,3.03
2022-10-07T09:32:09.959Z,3.22
2022-10-07T09:34:36.351Z,2.85
2022-10-07T09:37:08.811Z,2.63
2022-10-07T09:39:35.250Z,2.75
2022-10-07T09:42:04.040Z,2.95
2022-10-07T09:44:30.489Z,3.65
2022-10-07T09:47:11.734Z,3.67
2022-10-07T09:49:40.966Z,3.20
2022-10-07T09:52:15.973Z,3.05
2022-10-07T09:54:43.422Z,3.22
2022-10-07T09:57:23.554Z,3.15
2022-10-07T09:59:50.038Z,3.35
2022-10-07T10:02:22.440Z,3.40
2022-10-07T10:04:50.367Z,2.97
2022-10-07T10:07:16.713Z,3.40
2022-10-07T10:10:03.322Z,2.80
2022-10-07T10:12:35.516Z,2.85
2022-10-07T10:15:16.416Z,4.20
2022-10-07T10:17:42.799Z,2.70
2022-10-07T10:20:18.188Z,3.13
2022-10-07T10:22:44.836Z,3.15
2022-10-07T10:25:30.062Z,2.83
2022-10-07T10:28:01.588Z,3.28
2022-10-07T10:30:30.093Z,3.17
2022-10-07T10:33:18.799Z,3.00
2022-10-07T10:36:14.462Z,2.72
2022-10-07T10:38:50.998Z,2.90
2022-10-07T10:41:23.491Z,2.60
2022-10-07T10:43:53.403Z,2.78
2022-10-07T10:46:29.729Z,2.47
2022-10-07T10:49:25.305Z,2.47
2022-10-07T10:52:15.211Z,2.80
2022-10-07T10:54:47.343Z,2.17
2022-10-07T10:57:32.802Z,2.28
2022-10-07T11:00:08.846Z,2.38
2022-10-07T11:02:38.060Z,2.83
2022-10-07T11:05:17.346Z,2.35
2022-10-07T11:07:46.730Z,2.65
2022-10-07T11:10:21.769Z,2.38
2022-10-07T11:12:58.560Z,2.25
2022-10-07T11:15:30.365Z,2.22
2022-10-07T11:17:59.577Z,2.25
2022-10-07T11:20:44.415Z,3.70
2022-10-07T11:23:11.105Z,2.30
2022-10-07T11:25:43.018Z,2.53
2022-10-07T11:28:24.060Z,2.80
2022-10-07T11:31:02.481Z,2.15
2022-10-07T11:33:37.168Z,1.85
2022-10-07T11:36:23.852Z,2.45
2022-10-07T11:38:52.560Z,1.80
2022-10-07T11:41:25.518Z,2.00
2022-10-07T11:43:58.745Z,2.10
2022-10-07T11:46:31.960Z,2.40
2022-10-07T11:49:11.055Z,1.90
2022-10-07T11:51:55.936Z,1.90
2022-10-07T11:54:23.679Z,2.42
2022-10-07T11:56:53.837Z,1.92
2022-10-07T11:59:26.581Z,1.80
2022-10-07T12:01:53.364Z,2.47
2022-10-07T12:04:24.909Z,2.45
2022-10-07T12:07:10.164Z,2.33
2022-10-07T12:09:52.604Z,1.70
2022-10-07T12:12:22.216Z,1.85
2022-10-07T12:14:58.515Z,2.20
2022-10-07T12:17:27.263Z,2.03
2022-10-07T12:20:12.391Z,1.75
2022-10-07T12:22:39.078Z,1.85
2022-10-07T12:25:25.446Z,2.50
2022-10-07T12:27:51.926Z,2.58
2022-10-07T12:30:38.172Z,2.00
2022-10-07T12:33:14.711Z,1.58
2022-10-07T12:35:42.092Z,1.95
2022-10-07T12:38:17.760Z,2.20
2022-10-07T12:40:46.212Z,1.92
2022-10-07T12:43:15.685Z,2.15
2022-10-07T12:45:43.521Z,1.95
2022-10-07T12:48:14.891Z,2.17
2022-10-07T12:50:42.332Z,1.85
2022-10-07T12:53:10.442Z,1.65
2022-10-07T12:55:39.160Z,1.73
2022-10-07T12:58:41.408Z,2.35
2022-10-07T13:01:23.241Z,1.90
2022-10-07T13:04:01.611Z,1.95
2022-10-07T13:06:30.821Z,1.88
2022-10-07T13:09:16.320Z,2.00
2022-10-07T13:11:57.321Z,2.97
2022-10-07T13:14:31.431Z,2.70
2022-10-07T13:17:13.103Z,1.83
2022-10-07T13:19:39.453Z,2.20
2022-10-07T13:22:16.295Z,3.00
2022-10-07T13:24:46.921Z,2.00
2022-10-07T13:27:41.914Z,2.17
2022-10-07T13:30:28.414Z,1.55
2022-10-07T13:32:54.765Z,2.00
2022-10-07T13:35:34.111Z,1.75
2022-10-07T13:38:02.860Z,2.08
2022-10-07T13:40:35.207Z,2.13
2022-10-07T13:43:02.841Z,1.80
2022-10-07T13:45:29.552Z,2.45
2022-10-07T13:47:57.032Z,1.70
2022-10-07T13:50:26.270Z,1.98
2022-10-07T13:52:53.237Z,2.17
2022-10-07T13:55:25.578Z,2.13
2022-10-07T13:57:52.973Z,1.88
2022-10-07T14:00:19.500Z,1.88
2022-10-07T14:02:46.428Z,2.00
2022-10-07T14:05:20.938Z,2.10
2022-10-07T14:07:52.915Z,2.05
2022-10-07T14:10:19.715Z,2.53
2022-10-07T14:12:50.989Z,1.98
2022-10-07T14:15:22.053Z,1.83
2022-10-07T14:17:49.669Z,1.70
2022-10-07T14:20:20.668Z,2.00
2022-10-07T14:22:51.253Z,1.98
2022-10-07T14:25:19.497Z,1.88
2022-10-07T14:27:45.856Z,1.75
2022-10-07T14:30:25.430Z,2.15
2022-10-07T14:33:29.200Z,2.00
2022-10-07T14:36:08.207Z,1.80
2022-10-07T14:38:34.610Z,2.38
2022-10-07T14:41:01.077Z,1.88
2022-10-07T14:43:29.787Z,2.58
2022-10-07T14:45:56.209Z,2.05
2022-10-07T14:48:22.630Z,1.92
2022-10-07T14:50:49.381Z,2.35
2022-10-07T14:53:16.380Z,1.67
2022-10-07T14:55:42.857Z,2.28
2022-10-07T14:58:10.873Z,2.25
2022-10-07T15:00:39.855Z,2.42
2022-10-07T15:03:06.473Z,2.50
2022-10-07T15:05:33.870Z,2.05
2022-10-07T15:08:00.771Z,1.90
2022-10-07T15:10:27.214Z,2.33
2022-10-07T15:12:54.173Z,2.33
2022-10-07T15:15:20.527Z,1.80
2022-10-07T15:17:47.953Z,1.88
2022-10-07T15:20:15.205Z,2.55
2022-10-07T15:22:41.806Z,2.42
2022-10-07T15:25:09.166Z,2.13
2022-10-07T15:27:35.628Z,2.75
2022-10-07T15:30:02.030Z,3.38
2022-10-07T15:32:30.213Z,2.38
2022-10-07T15:34:57.776Z,2.22
2022-10-07T15:37:25.123Z,3.90
2022-10-07T15:39:51.596Z,3.90
2022-10-07T15:42:18.529Z,2.50
2022-10-07T15:44:47.835Z,2.80
2022-10-07T15:47:14.450Z,3.42
2022-10-07T15:49:40.978Z,3.03
2022-10-07T15:52:08.976Z,2.50
2022-10-07T15:54:35.574Z,2.92
2022-10-07T15:57:02.301Z,2.97
2022-10-07T15:59:28.754Z,2.72
2022-10-07T16:01:55.217Z,3.67
2022-10-07T16:04:22.023Z,4.40
2022-10-07T16:06:51.643Z,4.97
2022-10-07T16:09:22.096Z,3.97
2022-10-07T16:11:48.568Z,3.13
2022-10-07T16:14:15.500Z,4.80
2022-10-07T16:16:42.589Z,3.72
2022-10-07T16:19:09.974Z,2.58
2022-10-07T16:21:38.171Z,5.30
2022-10-07T16:24:08.896Z,5.57
2022-10-07T16:26:37.178Z,4.05
2022-10-07T16:29:23.983Z,3.60
2022-10-07T16:31:54.581Z,7.93
2022-10-07T16:34:24.236Z,11.82
2022-10-07T16:36:50.633Z,9.48
2022-10-07T16:39:18.666Z,10.70
2022-10-07T16:41:46.191Z,9.27
2022-10-07T16:44:13.143Z,8.50
2022-10-07T16:46:39.831Z,6.25
2022-10-07T16:49:07.710Z,4.65
2022-10-07T16:51:36.283Z,5.50
2022-10-07T16:54:04.788Z,5.47
2022-10-07T16:56:32.752Z,5.10
2022-10-07T16:59:00.202Z,5.50
2022-10-07T17:01:27.358Z,10.60
2022-10-07T17:03:56.026Z,7.82
2022-10-07T17:06:24.080Z,6.30
2022-10-07T17:08:50.451Z,9.85
2022-10-07T17:11:30.226Z,12.02
2022-10-07T17:14:01.059Z,13.88
2022-10-07T17:16:28.680Z,12.45
2022-10-07T17:18:55.225Z,6.13
2022-10-07T17:21:21.793Z,5.82
2022-10-07T17:23:48.693Z,5.22
2022-10-07T17:26:15.972Z,5.22
2022-10-07T17:28:42.885Z,5.90
2022-10-07T17:31:10.618Z,7.10
2022-10-07T17:33:40.896Z,9.20
2022-10-07T17:36:11.468Z,8.38
2022-10-07T17:38:41.835Z,7.35
2022-10-07T17:41:16.095Z,7.13
2022-10-07T17:43:42.717Z,6.07
2022-10-07T17:46:12.889Z,5.60
2022-10-07T17:48:46.846Z,6.25
2022-10-07T17:53:39.961Z,6.75
2022-10-07T17:56:09.813Z,9.30
2022-10-07T17:58:37.297Z,8.90
2022-10-07T18:01:04.933Z,8.70
2022-10-07T18:03:31.598Z,8.20
2022-10-07T18:05:58.092Z,6.82
2022-10-07T18:08:25.746Z,6.28
2022-10-07T18:10:52.516Z,5.50
2022-10-07T18:13:37.699Z,6.40
2022-10-07T18:16:04.767Z,8.25
2022-10-07T18:18:31.467Z,7.10
2022-10-07T18:21:05.170Z,7.35
2022-10-07T18:26:02.911Z,6.18
2022-10-07T18:28:31.612Z,4.75
2022-10-07T18:30:58.173Z,4.88
2022-10-07T18:33:24.642Z,4.97
2022-10-07T18:35:58.991Z,4.95
2022-10-07T18:38:29.303Z,4.32
2022-10-07T18:40:59.028Z,5.00
2022-10-07T18:43:25.474Z,4.78
2022-10-07T18:46:12.247Z,4.72
2022-10-07T18:48:40.074Z,4.63
2022-10-07T18:51:06.908Z,5.32
2022-10-07T18:53:35.165Z,5.68
2022-10-07T18:56:02.195Z,5.47
2022-10-07T18:58:29.022Z,6.38
2022-10-07T19:00:55.793Z,7.45
2022-10-07T19:03:22.339Z,9.20
2022-10-07T19:05:48.790Z,10.38
2022-10-07T19:08:15.138Z,7.57
2022-10-07T19:10:42.193Z,8.30
2022-10-07T19:13:33.753Z,7.38
2022-10-07T19:16:04.213Z,26.55
2022-10-07T19:18:34.148Z,13.75
2022-10-07T19:21:01.036Z,7.50
2022-10-07T19:26:21.134Z,7.13
2022-10-07T19:28:48.905Z,7.07
2022-10-07T19:31:17.239Z,7.35
2022-10-07T19:33:44.485Z,7.15
2022-10-07T19:36:12.131Z,6.70
2022-10-07T19:38:43.218Z,8.15
2022-10-07T19:41:14.269Z,7.13
2022-10-07T19:43:41.708Z,7.63
2022-10-07T19:46:08.329Z,7.57
2022-10-07T19:48:35.773Z,6.78
2022-10-07T19:51:04.730Z,6.65
2022-10-07T19:53:34.527Z,5.85
2022-10-07T19:56:01.936Z,4.80
2022-10-07T19:58:28.716Z,6.57
2022-10-07T20:01:04.526Z,5.70
2022-10-07T20:03:30.928Z,6.68
2022-10-07T20:05:59.996Z,6.78
2022-10-07T20:08:27.789Z,7.32
2022-10-07T20:10:54.176Z,6.72
2022-10-07T20:13:21.520Z,6.55
2022-10-07T20:15:47.872Z,7.10
2022-10-07T20:18:14.214Z,6.30
2022-10-07T20:20:40.621Z,6.93
2022-10-07T20:23:06.971Z,9.88
2022-10-07T20:25:33.346Z,7.88
2022-10-07T20:27:59.744Z,7.03
2022-10-07T20:30:26.140Z,7.32
2022-10-07T20:32:53.164Z,7.20
2022-10-07T20:35:19.531Z,7.05
2022-10-07T20:37:45.899Z,7.15
2022-10-07T20:40:31.081Z,6.40
2022-10-07T20:42:59.442Z,5.65
2022-10-07T20:45:25.824Z,5.07
2022-10-07T20:47:55.135Z,4.97
2022-10-07T20:50:21.539Z,5.07
2022-10-07T20:52:48.259Z,4.63
2022-10-07T20:55:14.970Z,4.18
2022-10-07T20:57:41.751Z,4.88
2022-10-07T21:00:15.886Z,4.75
2022-10-07T21:02:44.125Z,4.47
2022-10-07T21:05:10.752Z,5.88
2022-10-07T21:07:37.113Z,4.90
2022-10-07T21:10:03.596Z,4.55
2022-10-07T21:12:29.974Z,5.15
2022-10-07T21:15:00.450Z,5.22
2022-10-07T21:17:27.037Z,4.82
2022-10-07T21:19:53.486Z,5.55
2022-10-07T21:22:19.878Z,5.57
2022-10-07T21:24:47.039Z,5.22
2022-10-07T21:27:14.157Z,5.78
2022-10-07T21:29:41.450Z,5.57
2022-10-07T21:32:09.685Z,5.32
2022-10-07T21:34:36.209Z,5.68
2022-10-07T21:37:02.835Z,5.68
2022-10-07T21:39:29.194Z,6.68
2022-10-07T21:41:55.610Z,6.32
2022-10-07T21:44:21.989Z,5.85
2022-10-07T21:46:48.377Z,6.30
2022-10-07T21:49:15.292Z,8.35
2022-10-07T21:51:42.036Z,7.30
2022-10-07T21:54:13.448Z,6.53
2022-10-07T21:56:39.964Z,5.72
2022-10-07T21:59:06.397Z,7.38
2022-10-07T22:01:32.815Z,6.03
2022-10-07T22:04:00.800Z,6.25
2022-10-07T22:06:46.443Z,6.07
2022-10-07T22:09:13.882Z,6.05
2022-10-07T22:11:40.334Z,7.05
2022-10-07T22:14:12.084Z,6.75
2022-10-07T22:16:39.126Z,7.40
2022-10-07T22:19:05.751Z,6.75
2022-10-07T22:21:33.333Z,6.55
2022-10-07T22:24:01.556Z,6.28
2022-10-07T22:26:29.142Z,7.03
2022-10-07T22:28:55.907Z,7.72
2022-10-07T22:31:22.344Z,7.22
2022-10-07T22:33:53.109Z,7.38
2022-10-07T22:36:19.561Z,7.22
2022-10-07T22:38:45.900Z,7.05
2022-10-07T22:41:14.005Z,6.85
2022-10-07T22:43:44.328Z,6.78
2022-10-07T22:46:11.906Z,6.60
2022-10-07T22:48:39.037Z,6.65
2022-10-07T22:51:06.521Z,7.78
2022-10-07T22:53:34.879Z,9.27
2022-10-07T22:56:02.248Z,7.88
2022-10-07T22:58:30.345Z,7.82
2022-10-07T23:00:56.737Z,8.65
2022-10-07T23:03:24.025Z,8.45
2022-10-07T23:05:50.706Z,8.18
2022-10-07T23:08:17.097Z,6.47
2022-10-07T23:10:43.451Z,7.97
2022-10-07T23:13:09.856Z,6.90
2022-10-07T23:15:36.232Z,6.72
2022-10-07T23:18:02.916Z,6.70
2022-10-07T23:20:29.398Z,6.70
2022-10-07T23:22:55.805Z,6.43
2022-10-07T23:25:22.151Z,7.40
2022-10-07T23:27:48.547Z,5.55
2022-10-07T23:30:14.915Z,5.97
2022-10-07T23:32:44.176Z,5.88
2022-10-07T23:35:11.548Z,6.22
2022-10-07T23:37:37.958Z,6.32
2022-10-07T23:40:04.525Z,6.57
2022-10-07T23:42:30.885Z,6.07
2022-10-07T23:45:01.431Z,6.13
2022-10-07T23:47:28.014Z,6.55
2022-10-07T23:49:54.370Z,6.35
2022-10-07T23:52:21.680Z,6.93
2022-10-07T23:54:48.077Z,6.28
2022-10-07T23:57:14.546Z,6.20
2022-10-07T23:59:40.919Z,5.68
